createdAt,value
2023-02-19T00:00:11.109Z,0.90
2023-02-19T00:02:38.554Z,0.90
2023-02-19T00:05:05.736Z,1.05
2023-02-19T00:07:32.467Z,1.05
2023-02-19T00:09:59.199Z,0.82
2023-02-19T00:12:25.922Z,0.70
2023-02-19T00:14:52.647Z,1.08
2023-02-19T00:17:19.353Z,1.27
2023-02-19T00:19:46.604Z,1.08
2023-02-19T00:22:13.971Z,0.90
2023-02-19T00:24:41.114Z,1.00
2023-02-19T00:27:07.838Z,0.80
2023-02-19T00:29:34.577Z,0.90
2023-02-19T00:32:01.372Z,0.90
2023-02-19T00:34:28.145Z,1.00
2023-02-19T00:36:54.864Z,1.13
2023-02-19T00:39:21.625Z,1.00
2023-02-19T00:41:48.397Z,1.00
2023-02-19T00:44:15.696Z,0.98
2023-02-19T00:46:48.017Z,0.90
2023-02-19T00:49:24.045Z,1.10
2023-02-19T00:51:51.799Z,1.00
2023-02-19T00:54:18.697Z,1.10
2023-02-19T00:56:47.077Z,1.10
2023-02-19T00:59:13.943Z,1.00
2023-02-19T01:01:40.760Z,1.00
2023-02-19T01:04:07.582Z,0.98
2023-02-19T01:06:35.322Z,1.00
2023-02-19T01:09:02.443Z,0.93
2023-02-19T01:11:29.236Z,0.85
2023-02-19T01:13:59.956Z,0.80
2023-02-19T01:16:27.581Z,1.00
2023-02-19T01:18:54.526Z,1.00
2023-02-19T01:21:25.847Z,1.02
2023-02-19T01:23:52.762Z,0.90
2023-02-19T01:26:21.705Z,1.00
2023-02-19T01:28:50.129Z,0.88
2023-02-19T01:31:19.702Z,0.88
2023-02-19T01:33:48.640Z,0.70
2023-02-19T01:36:15.674Z,0.90
2023-02-19T01:38:42.437Z,0.95
2023-02-19T01:41:11.213Z,0.90
2023-02-19T01:43:57.420Z,0.80
2023-02-19T01:46:34.640Z,0.93
2023-02-19T01:49:10.619Z,0.90
2023-02-19T01:51:41.395Z,0.90
2023-02-19T01:54:09.116Z,1.00
2023-02-19T01:56:36.443Z,0.80
2023-02-19T01:59:03.166Z,0.93
2023-02-19T02:01:29.901Z,0.98
2023-02-19T02:03:56.681Z,1.05
2023-02-19T02:06:25.245Z,1.00
2023-02-19T02:09:12.491Z,1.00
2023-02-19T02:11:39.207Z,0.77
2023-02-19T02:14:05.981Z,0.85
2023-02-19T02:16:49.262Z,1.10
2023-02-19T02:19:41.601Z,1.20
2023-02-19T02:22:22.039Z,0.73
2023-02-19T02:25:21.472Z,1.00
2023-02-19T02:28:25.704Z,1.10
2023-02-19T02:30:58.133Z,1.00
2023-02-19T02:33:29.673Z,1.08
2023-02-19T02:35:58.616Z,1.10
2023-02-19T02:38:28.110Z,1.10
2023-02-19T02:40:54.994Z,1.05
2023-02-19T02:43:23.230Z,1.02
2023-02-19T02:45:50.023Z,0.93
2023-02-19T02:48:36.886Z,1.10
2023-02-19T02:51:40.322Z,0.95
2023-02-19T02:54:35.182Z,0.80
2023-02-19T02:57:01.954Z,1.00
2023-02-19T02:59:31.411Z,0.90
2023-02-19T03:02:12.179Z,0.95
2023-02-19T03:05:01.675Z,1.00
2023-02-19T03:07:30.957Z,1.00
2023-02-19T03:09:58.422Z,0.90
2023-02-19T03:12:44.224Z,0.77
2023-02-19T03:15:29.506Z,0.90
2023-02-19T03:18:17.617Z,1.17
2023-02-19T03:20:45.776Z,1.00
2023-02-19T03:23:12.553Z,0.77
2023-02-19T03:25:57.923Z,1.00
2023-02-19T03:28:46.913Z,1.00
2023-02-19T03:31:15.727Z,0.85
2023-02-19T03:33:42.725Z,1.13
2023-02-19T03:36:10.656Z,0.90
2023-02-19T03:38:44.824Z,1.10
2023-02-19T03:41:26.718Z,1.10
2023-02-19T03:44:05.300Z,0.90
2023-02-19T03:46:47.152Z,1.00
2023-02-19T03:49:28.867Z,1.08
2023-02-19T03:52:04.679Z,1.08
2023-02-19T03:55:09.981Z,1.00
2023-02-19T03:57:57.208Z,1.10
2023-02-19T04:00:27.828Z,0.90
2023-02-19T04:03:07.745Z,0.85
2023-02-19T04:05:37.567Z,1.05
2023-02-19T04:08:08.123Z,1.00
2023-02-19T04:10:34.889Z,0.80
2023-02-19T04:13:04.174Z,0.85
2023-02-19T04:15:32.205Z,0.80
2023-02-19T04:18:07.401Z,0.80
2023-02-19T04:20:48.084Z,0.95
2023-02-19T04:23:16.338Z,0.90
2023-02-19T04:25:44.249Z,0.98
2023-02-19T04:28:10.987Z,0.90
2023-02-19T04:30:37.742Z,0.95
2023-02-19T04:33:04.612Z,0.73
2023-02-19T04:35:31.362Z,1.00
2023-02-19T04:37:59.714Z,0.70
2023-02-19T04:40:26.434Z,0.90
2023-02-19T04:42:53.172Z,0.93
2023-02-19T04:45:19.919Z,0.90
2023-02-19T04:47:46.632Z,1.20
2023-02-19T04:50:13.574Z,0.90
2023-02-19T04:52:40.377Z,1.00
2023-02-19T04:55:07.823Z,0.90
2023-02-19T04:57:35.186Z,0.77
2023-02-19T05:00:02.200Z,0.70
2023-02-19T05:02:29.595Z,0.68
2023-02-19T05:04:56.378Z,0.88
2023-02-19T05:07:23.085Z,0.77
2023-02-19T05:09:49.810Z,0.82
2023-02-19T05:12:16.522Z,0.95
2023-02-19T05:14:43.242Z,0.77
2023-02-19T05:17:09.978Z,1.20
2023-02-19T05:19:36.721Z,1.00
2023-02-19T05:22:03.457Z,1.00
2023-02-19T05:24:31.879Z,0.93
2023-02-19T05:26:58.621Z,0.80
2023-02-19T05:29:25.344Z,0.90
2023-02-19T05:31:52.178Z,0.70
2023-02-19T05:34:18.950Z,0.85
2023-02-19T05:36:45.703Z,0.80
2023-02-19T05:39:12.540Z,0.90
2023-02-19T05:41:39.404Z,0.85
2023-02-19T05:44:06.099Z,0.98
2023-02-19T05:46:33.636Z,0.80
2023-02-19T05:49:03.398Z,0.70
2023-02-19T05:51:31.282Z,0.80
2023-02-19T05:53:58.142Z,1.00
2023-02-19T05:56:40.807Z,0.82
2023-02-19T05:59:15.080Z,1.00
2023-02-19T06:01:41.899Z,1.30
2023-02-19T06:04:10.360Z,1.38
2023-02-19T06:06:37.364Z,0.80
2023-02-19T06:09:04.988Z,1.00
2023-02-19T06:11:32.861Z,1.00
2023-02-19T06:14:00.889Z,1.10
2023-02-19T06:16:28.219Z,1.20
2023-02-19T06:18:55.430Z,1.00
2023-02-19T06:21:22.275Z,1.10
2023-02-19T06:23:49.103Z,0.82
2023-02-19T06:26:17.896Z,0.95
2023-02-19T06:28:44.903Z,1.35
2023-02-19T06:31:12.259Z,0.90
2023-02-19T06:33:42.316Z,1.10
2023-02-19T06:36:17.037Z,1.38
2023-02-19T06:38:43.856Z,1.08
2023-02-19T06:41:13.135Z,1.00
2023-02-19T06:43:40.141Z,1.30
2023-02-19T06:46:07.225Z,0.93
2023-02-19T06:48:34.070Z,1.10
2023-02-19T06:51:02.893Z,1.02
2023-02-19T06:53:30.638Z,1.00
2023-02-19T06:55:58.387Z,1.23
2023-02-19T06:58:25.218Z,1.27
2023-02-19T07:00:52.169Z,0.88
2023-02-19T07:03:18.986Z,0.90
2023-02-19T07:05:45.773Z,1.13
2023-02-19T07:08:12.527Z,1.02
2023-02-19T07:10:39.251Z,0.80
2023-02-19T07:13:06.004Z,1.00
2023-02-19T07:15:32.980Z,0.93
2023-02-19T07:18:00.315Z,1.08
2023-02-19T07:20:27.538Z,1.10
2023-02-19T07:22:54.319Z,1.17
2023-02-19T07:25:21.812Z,1.00
2023-02-19T07:27:48.542Z,1.25
2023-02-19T07:30:15.289Z,1.17
2023-02-19T07:32:42.505Z,1.20
2023-02-19T07:35:09.273Z,1.20
2023-02-19T07:37:36.137Z,1.42
2023-02-19T07:40:03.405Z,1.13
2023-02-19T07:42:30.822Z,1.25
2023-02-19T07:45:00.608Z,1.10
2023-02-19T07:47:28.645Z,1.00
2023-02-19T07:49:55.346Z,1.23
2023-02-19T07:52:22.089Z,1.40
2023-02-19T07:54:48.901Z,1.00
2023-02-19T07:57:15.647Z,1.10
2023-02-19T07:59:42.370Z,1.00
2023-02-19T08:02:42.274Z,1.00
2023-02-19T08:05:09.271Z,1.00
2023-02-19T08:07:36.273Z,1.10
2023-02-19T08:10:22.612Z,1.23
2023-02-19T08:13:17.568Z,1.27
2023-02-19T08:15:44.415Z,1.08
2023-02-19T08:18:11.281Z,1.20
2023-02-19T08:20:38.145Z,1.20
2023-02-19T08:23:05.027Z,1.10
2023-02-19T08:25:33.271Z,1.13
2023-02-19T08:28:03.259Z,1.40
2023-02-19T08:30:32.365Z,1.30
2023-02-19T08:33:02.176Z,0.93
2023-02-19T08:35:29.143Z,1.25
2023-02-19T08:37:57.046Z,1.10
2023-02-19T08:40:24.307Z,1.15
2023-02-19T08:42:51.073Z,1.02
2023-02-19T08:45:17.855Z,1.30
2023-02-19T08:47:44.822Z,1.10
2023-02-19T08:50:11.690Z,1.10
2023-02-19T08:52:38.432Z,1.10
2023-02-19T08:55:05.734Z,1.25
2023-02-19T08:57:37.477Z,1.45
2023-02-19T09:00:05.496Z,1.40
2023-02-19T09:02:32.945Z,1.40
2023-02-19T09:05:00.525Z,1.35
2023-02-19T09:07:27.360Z,1.00
2023-02-19T09:09:54.415Z,1.17
2023-02-19T09:12:21.256Z,1.45
2023-02-19T09:14:48.082Z,1.33
2023-02-19T09:17:14.835Z,1.20
2023-02-19T09:19:41.625Z,1.15
2023-02-19T09:22:08.405Z,1.20
2023-02-19T09:24:35.127Z,1.27
2023-02-19T09:27:02.768Z,1.10
2023-02-19T09:29:29.824Z,1.30
2023-02-19T09:31:59.109Z,1.10
2023-02-19T09:34:27.013Z,1.30
2023-02-19T09:36:53.853Z,1.30
2023-02-19T09:39:20.825Z,0.98
2023-02-19T09:41:58.151Z,1.30
2023-02-19T09:44:31.111Z,1.20
2023-02-19T09:46:58.116Z,1.00
2023-02-19T09:49:34.053Z,1.13
2023-02-19T09:52:07.327Z,1.20
2023-02-19T09:54:34.312Z,1.00
2023-02-19T09:57:02.867Z,1.20
2023-02-19T09:59:35.032Z,1.10
2023-02-19T10:02:15.451Z,1.20
2023-02-19T10:04:43.420Z,1.25
2023-02-19T10:07:18.207Z,1.42
2023-02-19T10:09:46.490Z,1.30
2023-02-19T10:12:16.065Z,1.05
2023-02-19T10:14:45.410Z,1.52
2023-02-19T10:17:24.296Z,1.10
2023-02-19T10:19:51.895Z,1.23
2023-02-19T10:22:19.216Z,1.10
2023-02-19T10:24:45.959Z,1.33
2023-02-19T10:27:13.801Z,1.27
2023-02-19T10:29:40.871Z,1.10
2023-02-19T10:32:19.711Z,1.20
2023-02-19T10:34:46.823Z,1.00
2023-02-19T10:37:15.992Z,1.00
2023-02-19T10:39:45.363Z,1.08
2023-02-19T10:42:17.068Z,1.20
2023-02-19T10:44:45.497Z,1.02
2023-02-19T10:47:17.064Z,1.10
2023-02-19T10:49:46.027Z,1.20
2023-02-19T10:52:24.054Z,1.30
2023-02-19T10:55:14.898Z,1.20
2023-02-19T10:57:41.717Z,0.80
2023-02-19T11:00:22.791Z,1.00
2023-02-19T11:02:49.585Z,1.00
2023-02-19T11:05:18.091Z,1.05
2023-02-19T11:07:55.969Z,1.00
2023-02-19T11:10:42.315Z,1.15
2023-02-19T11:13:15.561Z,1.27
2023-02-19T11:15:42.373Z,1.10
2023-02-19T11:18:14.912Z,1.10
2023-02-19T11:20:58.855Z,0.90
2023-02-19T11:23:43.494Z,1.10
2023-02-19T11:26:21.099Z,0.80
2023-02-19T11:28:59.733Z,0.90
2023-02-19T11:31:33.077Z,1.00
2023-02-19T11:34:15.578Z,1.30
2023-02-19T11:36:42.477Z,1.27
2023-02-19T11:39:15.479Z,1.05
2023-02-19T11:41:45.352Z,1.15
2023-02-19T11:44:49.226Z,0.90
2023-02-19T11:48:14.377Z,1.10
2023-02-19T11:50:57.078Z,1.30
2023-02-19T11:53:27.381Z,1.10
2023-02-19T11:56:09.921Z,1.05
2023-02-19T11:58:53.423Z,1.00
2023-02-19T12:01:30.976Z,0.90
2023-02-19T12:04:03.006Z,1.25
2023-02-19T12:06:57.449Z,1.00
2023-02-19T12:09:45.330Z,1.10
2023-02-19T12:12:24.442Z,1.00
2023-02-19T12:15:10.058Z,1.10
2023-02-19T12:17:43.539Z,1.00
2023-02-19T12:20:47.467Z,0.85
2023-02-19T12:23:17.050Z,0.90
2023-02-19T12:26:08.607Z,0.90
2023-02-19T12:28:39.870Z,0.90
2023-02-19T12:31:44.673Z,1.00
2023-02-19T12:34:23.512Z,0.98
2023-02-19T12:36:56.445Z,1.00
2023-02-19T12:39:39.299Z,1.10
2023-02-19T12:42:25.032Z,0.80
2023-02-19T12:44:54.514Z,1.10
2023-02-19T12:47:27.851Z,0.93
2023-02-19T12:50:09.868Z,0.73
2023-02-19T12:52:40.342Z,0.95
2023-02-19T12:55:22.874Z,1.20
2023-02-19T12:57:49.626Z,1.55
2023-02-19T13:00:33.171Z,1.10
2023-02-19T13:03:21.126Z,1.10
2023-02-19T13:06:12.041Z,1.02
2023-02-19T13:09:05.330Z,1.13
2023-02-19T13:11:41.886Z,0.90
2023-02-19T13:14:28.798Z,0.95
2023-02-19T13:17:01.771Z,0.90
2023-02-19T13:19:29.202Z,0.93
2023-02-19T13:22:30.464Z,1.30
2023-02-19T13:24:57.213Z,1.20
2023-02-19T13:27:56.690Z,1.13
2023-02-19T13:30:51.249Z,1.00
2023-02-19T13:33:53.209Z,1.10
2023-02-19T13:36:26.727Z,1.13
2023-02-19T13:38:53.514Z,1.00
2023-02-19T13:41:30.118Z,0.80
2023-02-19T13:43:59.299Z,0.90
2023-02-19T13:46:26.381Z,0.95
2023-02-19T13:49:27.454Z,0.70
2023-02-19T13:51:57.984Z,1.00
2023-02-19T13:54:26.313Z,1.00
2023-02-19T13:57:28.721Z,0.90
2023-02-19T13:59:58.513Z,1.38
2023-02-19T14:02:28.790Z,1.23
2023-02-19T14:05:00.061Z,1.17
2023-02-19T14:07:26.762Z,1.02
2023-02-19T14:09:53.824Z,0.85
2023-02-19T14:12:21.551Z,1.00
2023-02-19T14:14:52.086Z,1.10
2023-02-19T14:17:45.706Z,0.88
2023-02-19T14:20:15.450Z,0.90
2023-02-19T14:22:58.285Z,1.02
2023-02-19T14:25:31.083Z,1.20
2023-02-19T14:28:03.128Z,1.08
2023-02-19T14:30:31.353Z,0.93
2023-02-19T14:33:10.202Z,1.10
2023-02-19T14:35:45.817Z,0.95
2023-02-19T14:38:21.611Z,1.00
2023-02-19T14:40:48.637Z,1.00
2023-02-19T14:43:16.577Z,0.88
2023-02-19T14:45:46.654Z,0.88
2023-02-19T14:48:25.709Z,0.70
2023-02-19T14:50:55.853Z,1.00
2023-02-19T14:53:22.718Z,1.00
2023-02-19T14:55:49.600Z,0.82
2023-02-19T14:58:40.610Z,1.20
2023-02-19T15:01:24.622Z,1.00
2023-02-19T15:03:54.123Z,0.75
2023-02-19T15:06:23.369Z,0.80
2023-02-19T15:08:52.411Z,0.88
2023-02-19T15:11:20.809Z,1.10
2023-02-19T15:13:51.450Z,0.98
2023-02-19T15:16:19.323Z,1.00
2023-02-19T15:18:46.461Z,0.85
2023-02-19T15:21:33.891Z,1.13
2023-02-19T15:24:03.468Z,0.90
2023-02-19T15:26:41.116Z,0.90
2023-02-19T15:29:11.719Z,0.90
2023-02-19T15:31:48.725Z,0.98
2023-02-19T15:34:20.947Z,0.88
2023-02-19T15:36:49.138Z,1.20
2023-02-19T15:39:29.137Z,1.05
2023-02-19T15:41:59.654Z,1.20
2023-02-19T15:44:49.246Z,1.20
2023-02-19T15:47:24.329Z,1.30
2023-02-19T15:50:18.045Z,1.70
2023-02-19T15:52:45.990Z,1.55
2023-02-19T15:55:31.433Z,1.05
2023-02-19T15:58:22.178Z,1.10
2023-02-19T16:00:56.815Z,1.00
2023-02-19T16:03:24.923Z,1.35
2023-02-19T16:06:11.322Z,1.15
2023-02-19T16:08:40.421Z,1.25
2023-02-19T16:11:36.660Z,1.58
2023-02-19T16:14:30.815Z,1.27
2023-02-19T16:17:08.767Z,1.40
2023-02-19T16:19:44.990Z,1.30
2023-02-19T16:22:12.262Z,1.42
2023-02-19T16:24:46.767Z,1.52
2023-02-19T16:27:14.021Z,1.10
2023-02-19T16:29:41.356Z,1.33
2023-02-19T16:32:15.527Z,1.35
2023-02-19T16:34:52.053Z,1.52
2023-02-19T16:37:35.976Z,1.00
2023-02-19T16:40:45.571Z,1.40
2023-02-19T16:43:15.443Z,1.60
2023-02-19T16:45:42.947Z,1.17
2023-02-19T16:48:10.990Z,1.60
2023-02-19T16:50:39.003Z,1.40
2023-02-19T16:53:05.727Z,1.10
2023-02-19T16:55:32.664Z,1.58
2023-02-19T16:57:59.427Z,1.40
2023-02-19T17:00:27.873Z,1.67
2023-02-19T17:03:00.232Z,1.50
2023-02-19T17:05:28.048Z,1.52
2023-02-19T17:07:54.840Z,1.30
2023-02-19T17:10:23.119Z,1.20
2023-02-19T17:12:50.708Z,1.38
2023-02-19T17:15:18.223Z,1.10
2023-02-19T17:17:45.055Z,1.35
2023-02-19T17:20:32.131Z,1.27
2023-02-19T17:22:59.182Z,1.38
2023-02-19T17:25:25.920Z,1.05
2023-02-19T17:27:52.713Z,1.45
2023-02-19T17:30:30.256Z,1.20
2023-02-19T17:32:57.180Z,1.27
2023-02-19T17:35:23.924Z,1.25
2023-02-19T17:37:53.217Z,0.95
2023-02-19T17:40:33.096Z,1.10
2023-02-19T17:43:00.529Z,1.33
2023-02-19T17:45:27.239Z,1.95
2023-02-19T17:47:53.928Z,1.52
2023-02-19T17:50:22.385Z,1.40
2023-02-19T17:52:49.164Z,1.48
2023-02-19T17:55:18.521Z,1.92
2023-02-19T17:57:49.438Z,1.92
2023-02-19T18:00:18.276Z,1.65
2023-02-19T18:02:45.080Z,2.00
2023-02-19T18:05:11.845Z,1.95
2023-02-19T18:07:40.609Z,1.58
2023-02-19T18:10:09.251Z,1.67
2023-02-19T18:12:36.587Z,2.10
2023-02-19T18:15:04.106Z,2.00
2023-02-19T18:17:30.904Z,1.60
2023-02-19T18:19:57.839Z,1.65
2023-02-19T18:22:24.846Z,1.40
2023-02-19T18:24:54.344Z,1.73
2023-02-19T18:27:23.474Z,2.10
2023-02-19T18:29:54.123Z,1.75
2023-02-19T18:32:21.281Z,1.88
2023-02-19T18:34:52.330Z,2.40
2023-02-19T18:37:19.175Z,2.20
2023-02-19T18:39:46.035Z,2.65
2023-02-19T18:42:12.890Z,2.17
2023-02-19T18:44:40.665Z,2.13
2023-02-19T18:47:09.395Z,3.65
2023-02-19T18:49:36.212Z,3.35
2023-02-19T18:52:03.055Z,3.15
2023-02-19T18:54:31.334Z,2.60
2023-02-19T18:56:58.382Z,2.85
2023-02-19T18:59:27.109Z,2.70
2023-02-19T19:01:53.915Z,2.80
2023-02-19T19:04:21.006Z,2.50
2023-02-19T19:06:49.040Z,2.28
2023-02-19T19:09:16.046Z,2.38
2023-02-19T19:11:44.479Z,2.33
2023-02-19T19:14:11.480Z,2.10
2023-02-19T19:16:39.266Z,2.28
2023-02-19T19:19:06.287Z,2.65
2023-02-19T19:21:33.159Z,2.15
2023-02-19T19:24:00.027Z,2.08
2023-02-19T19:26:26.950Z,2.45
2023-02-19T19:28:54.501Z,2.25
2023-02-19T19:31:21.777Z,2.38
2023-02-19T19:33:49.025Z,2.33
2023-02-19T19:36:18.684Z,2.50
2023-02-19T19:38:46.629Z,2.47
2023-02-19T19:41:17.252Z,2.13
2023-02-19T19:43:44.396Z,2.25
2023-02-19T19:46:12.037Z,1.75
2023-02-19T19:48:42.050Z,2.92
2023-02-19T19:51:10.256Z,2.50
2023-02-19T19:53:37.759Z,2.05
2023-02-19T19:56:04.833Z,3.10
2023-02-19T19:58:32.562Z,2.25
2023-02-19T20:01:01.699Z,2.80
2023-02-19T20:03:29.026Z,2.95
2023-02-19T20:05:55.844Z,2.55
2023-02-19T20:08:22.686Z,2.40
2023-02-19T20:10:49.422Z,2.38
2023-02-19T20:13:17.554Z,2.00
2023-02-19T20:15:44.358Z,2.25
2023-02-19T20:18:12.650Z,2.42
2023-02-19T20:20:39.764Z,1.98
2023-02-19T20:23:06.831Z,2.20
2023-02-19T20:25:33.953Z,1.90
2023-02-19T20:28:00.682Z,2.35
2023-02-19T20:30:27.445Z,1.75
2023-02-19T20:32:54.246Z,1.83
2023-02-19T20:35:21.112Z,1.70
2023-02-19T20:37:49.382Z,1.42
2023-02-19T20:40:17.254Z,1.52
2023-02-19T20:42:44.010Z,1.30
2023-02-19T20:45:14.313Z,1.40
2023-02-19T20:47:42.463Z,1.40
2023-02-19T20:50:09.745Z,1.58
2023-02-19T20:52:37.225Z,1.38
2023-02-19T20:55:04.014Z,1.35
2023-02-19T20:57:30.747Z,1.85
2023-02-19T20:59:57.496Z,1.50
2023-02-19T21:02:27.808Z,1.30
2023-02-19T21:04:55.499Z,1.65
2023-02-19T21:07:22.503Z,1.52
2023-02-19T21:09:49.216Z,1.65
2023-02-19T21:12:16.150Z,1.83
2023-02-19T21:14:43.297Z,2.00
2023-02-19T21:17:11.403Z,1.70
2023-02-19T21:19:38.220Z,1.38
2023-02-19T21:22:05.032Z,1.77
2023-02-19T21:24:32.806Z,1.70
2023-02-19T21:26:59.532Z,1.52
2023-02-19T21:29:27.034Z,1.42
2023-02-19T21:31:55.278Z,1.40
2023-02-19T21:34:23.883Z,1.55
2023-02-19T21:36:50.624Z,1.40
2023-02-19T21:39:18.662Z,1.38
2023-02-19T21:41:45.463Z,1.67
2023-02-19T21:44:13.438Z,1.85
2023-02-19T21:46:40.209Z,1.30
2023-02-19T21:49:07.374Z,1.70
2023-02-19T21:51:35.706Z,1.88
2023-02-19T21:54:02.938Z,1.80
2023-02-19T21:56:30.953Z,1.60
2023-02-19T21:58:57.941Z,1.90
2023-02-19T22:01:26.377Z,1.70
2023-02-19T22:03:53.176Z,1.63
2023-02-19T22:06:22.559Z,1.90
2023-02-19T22:08:49.271Z,1.50
2023-02-19T22:11:16.114Z,1.52
2023-02-19T22:13:44.317Z,1.70
2023-02-19T22:16:11.520Z,1.35
2023-02-19T22:18:38.651Z,1.38
2023-02-19T22:21:06.295Z,1.30
2023-02-19T22:23:33.107Z,1.40
2023-02-19T22:25:59.941Z,1.35
2023-02-19T22:28:26.702Z,1.25
2023-02-19T22:30:53.431Z,1.48
2023-02-19T22:33:20.157Z,1.58
2023-02-19T22:35:46.868Z,1.40
2023-02-19T22:38:14.682Z,1.38
2023-02-19T22:40:41.400Z,1.48
2023-02-19T22:43:08.120Z,1.52
2023-02-19T22:45:34.929Z,1.45
2023-02-19T22:48:01.665Z,1.17
2023-02-19T22:50:28.386Z,1.40
2023-02-19T22:52:55.193Z,1.42
2023-02-19T22:55:22.011Z,1.30
2023-02-19T22:57:48.932Z,1.45
2023-02-19T23:00:20.930Z,1.30
2023-02-19T23:02:48.694Z,1.20
2023-02-19T23:05:17.077Z,1.10
2023-02-19T23:07:46.499Z,1.42
2023-02-19T23:10:13.411Z,1.30
2023-02-19T23:12:40.389Z,1.17
2023-02-19T23:15:08.058Z,1.20
2023-02-19T23:17:34.787Z,1.45
2023-02-19T23:20:01.643Z,1.20
2023-02-19T23:22:28.564Z,1.35
2023-02-19T23:24:55.292Z,1.30
2023-02-19T23:27:24.172Z,1.20
2023-02-19T23:29:50.968Z,1.20
2023-02-19T23:32:20.949Z,1.10
2023-02-19T23:34:48.371Z,1.20
2023-02-19T23:37:15.457Z,1.20
2023-02-19T23:39:42.477Z,1.25
2023-02-19T23:42:12.242Z,1.20
2023-02-19T23:44:38.997Z,0.90
2023-02-19T23:47:05.764Z,1.10
2023-02-19T23:49:32.491Z,1.10
2023-02-19T23:51:59.240Z,1.10
2023-02-19T23:54:25.957Z,1.40
2023-02-19T23:56:52.669Z,0.93
2023-02-19T23:59:19.875Z,1.48
